sensor_id;sensor_type;location;lat;lon;timestamp;pressure;altitude;pressure_sealevel;temperature;humidity
59789;BME280;47353;51.614;5.530;2022-08-20T00:00:13;101458.53;;;18.83;100.00
59789;BME280;47353;51.614;5.530;2022-08-20T00:02:41;101454.94;;;18.83;100.00
59789;BME280;47353;51.614;5.530;2022-08-20T00:05:07;101455.25;;;18.81;100.00
59789;BME280;47353;51.614;5.530;2022-08-20T00:07:33;101452.13;;;18.83;100.00
59789;BME280;47353;51.614;5.530;2022-08-20T00:09:58;101450.75;;;18.80;100.00
59789;BME280;47353;51.614;5.530;2022-08-20T00:12:24;101450.91;;;18.75;100.00
59789;BME280;47353;51.614;5.530;2022-08-20T00:14:50;101443.44;;;18.71;100.00
59789;BME280;47353;51.614;5.530;2022-08-20T00:17:15;101447.00;;;18.63;100.00
59789;BME280;47353;51.614;5.530;2022-08-20T00:19:41;101442.41;;;18.67;100.00
59789;BME280;47353;51.614;5.530;2022-08-20T00:22:06;101443.88;;;18.64;100.00
59789;BME280;47353;51.614;5.530;2022-08-20T00:24:31;101448.63;;;18.64;100.00
59789;BME280;47353;51.614;5.530;2022-08-20T00:26:57;101452.78;;;18.66;100.00
59789;BME280;47353;51.614;5.530;2022-08-20T00:29:22;101448.63;;;18.64;100.00
59789;BME280;47353;51.614;5.530;2022-08-20T00:31:48;101445.31;;;18.62;100.00
59789;BME280;47353;51.614;5.530;2022-08-20T00:34:14;101452.78;;;18.66;100.00
59789;BME280;47353;51.614;5.530;2022-08-20T00:36:39;101452.13;;;18.69;100.00
59789;BME280;47353;51.614;5.530;2022-08-20T00:39:05;101450.28;;;18.65;100.00
59789;BME280;47353;51.614;5.530;2022-08-20T00:41:30;101431.75;;;18.55;100.00
59789;BME280;47353;51.614;5.530;2022-08-20T00:44:12;101437.22;;;18.60;100.00
59789;BME280;47353;51.614;5.530;2022-08-20T00:46:40;101435.94;;;18.66;100.00
59789;BME280;47353;51.614;5.530;2022-08-20T00:49:08;101440.91;;;18.69;100.00
59789;BME280;47353;51.614;5.530;2022-08-20T00:54:14;101442.41;;;18.67;100.00
59789;BME280;47353;51.614;5.530;2022-08-20T00:56:42;101443.72;;;18.69;100.00
59789;BME280;47353;51.614;5.530;2022-08-20T00:59:15;101437.09;;;18.65;100.00
59789;BME280;47353;51.614;5.530;2022-08-20T01:01:43;101451.34;;;18.69;100.00
59789;BME280;47353;51.614;5.530;2022-08-20T01:04:09;101447.31;;;18.61;100.00
59789;BME280;47353;51.614;5.530;2022-08-20T01:06:36;101446.78;;;18.59;100.00
59789;BME280;47353;51.614;5.530;2022-08-20T01:09:03;101442.50;;;18.62;100.00
59789;BME280;47353;51.614;5.530;2022-08-20T01:11:28;101438.25;;;18.64;100.00
59789;BME280;47353;51.614;5.530;2022-08-20T01:14:13;101439.91;;;18.65;100.00
59789;BME280;47353;51.614;5.530;2022-08-20T01:16:45;101435.63;;;18.68;100.00
59789;BME280;47353;51.614;5.530;2022-08-20T01:19:13;101438.97;;;18.70;100.00
59789;BME280;47353;51.614;5.530;2022-08-20T01:21:41;101438.13;;;18.69;100.00
59789;BME280;47353;51.614;5.530;2022-08-20T01:24:16;101447.91;;;18.72;100.00
59789;BME280;47353;51.614;5.530;2022-08-20T01:26:46;101439.16;;;18.73;100.00
59789;BME280;47353;51.614;5.530;2022-08-20T01:29:24;101444.78;;;18.73;100.00
59789;BME280;47353;51.614;5.530;2022-08-20T01:31:53;101444.25;;;18.71;100.00
59789;BME280;47353;51.614;5.530;2022-08-20T01:34:25;101454.34;;;18.72;100.00
59789;BME280;47353;51.614;5.530;2022-08-20T01:36:52;101444.78;;;18.73;100.00
59789;BME280;47353;51.614;5.530;2022-08-20T01:39:24;101441.97;;;18.73;100.00
59789;BME280;47353;51.614;5.530;2022-08-20T01:42:11;101444.25;;;18.71;100.00
59789;BME280;47353;51.614;5.530;2022-08-20T01:44:40;101446.84;;;18.68;100.00
59789;BME280;47353;51.614;5.530;2022-08-20T01:49:34;101440.22;;;18.64;100.00
59789;BME280;47353;51.614;5.530;2022-08-20T01:52:05;101441.38;;;18.63;100.00
59789;BME280;47353;51.614;5.530;2022-08-20T01:54:32;101441.88;;;18.65;100.00
59789;BME280;47353;51.614;5.530;2022-08-20T01:57:13;101431.81;;;18.64;100.00
59789;BME280;47353;51.614;5.530;2022-08-20T01:59:40;101439.28;;;18.68;100.00
59789;BME280;47353;51.614;5.530;2022-08-20T02:02:05;101445.41;;;18.70;100.00
59789;BME280;47353;51.614;5.530;2022-08-20T02:04:32;101447.47;;;18.65;100.00
59789;BME280;47353;51.614;5.530;2022-08-20T02:06:59;101448.97;;;18.62;100.00
59789;BME280;47353;51.614;5.530;2022-08-20T02:09:28;101454.34;;;18.59;100.00
59789;BME280;47353;51.614;5.530;2022-08-20T02:11:54;101439.94;;;18.52;100.00
59789;BME280;47353;51.614;5.530;2022-08-20T02:14:21;101448.38;;;18.52;100.00
59789;BME280;47353;51.614;5.530;2022-08-20T02:16:47;101447.03;;;18.49;100.00
59789;BME280;47353;51.614;5.530;2022-08-20T02:19:17;101442.78;;;18.38;100.00
59789;BME280;47353;51.614;5.530;2022-08-20T02:21:51;101451.91;;;18.44;100.00
59789;BME280;47353;51.614;5.530;2022-08-20T02:24:17;101444.13;;;18.41;100.00
59789;BME280;47353;51.614;5.530;2022-08-20T02:26:43;101449.84;;;18.49;100.00
59789;BME280;47353;51.614;5.530;2022-08-20T02:29:11;101448.69;;;18.50;100.00
59789;BME280;47353;51.614;5.530;2022-08-20T02:31:37;101450.66;;;18.50;100.00
59789;BME280;47353;51.614;5.530;2022-08-20T02:34:04;101445.34;;;18.48;100.00
59789;BME280;47353;51.614;5.530;2022-08-20T02:36:31;101443.91;;;18.51;100.00
59789;BME280;47353;51.614;5.530;2022-08-20T02:38:56;101450.97;;;18.48;100.00
59789;BME280;47353;51.614;5.530;2022-08-20T02:41:22;101446.81;;;18.46;100.00
59789;BME280;47353;51.614;5.530;2022-08-20T02:43:48;101453.44;;;18.50;100.00
59789;BME280;47353;51.614;5.530;2022-08-20T02:46:16;101456.56;;;18.48;100.00
59789;BME280;47353;51.614;5.530;2022-08-20T02:48:43;101451.78;;;18.49;100.00
59789;BME280;47353;51.614;5.530;2022-08-20T02:51:08;101455.53;;;18.44;100.00
59789;BME280;47353;51.614;5.530;2022-08-20T02:53:37;101459.16;;;18.45;100.00
59789;BME280;47353;51.614;5.530;2022-08-20T02:56:07;101452.22;;;18.42;100.00
59789;BME280;47353;51.614;5.530;2022-08-20T02:58:33;101453.16;;;18.38;100.00
59789;BME280;47353;51.614;5.530;2022-08-20T03:01:00;101447.94;;;18.31;100.00
59789;BME280;47353;51.614;5.530;2022-08-20T03:03:26;101453.88;;;18.29;100.00
59789;BME280;47353;51.614;5.530;2022-08-20T03:05:55;101457.94;;;18.23;100.00
59789;BME280;47353;51.614;5.530;2022-08-20T03:08:21;101454.28;;;18.23;100.00
59789;BME280;47353;51.614;5.530;2022-08-20T03:10:47;101452.84;;;18.25;100.00
59789;BME280;47353;51.614;5.530;2022-08-20T03:13:14;101457.59;;;18.25;100.00
59789;BME280;47353;51.614;5.530;2022-08-20T03:15:43;101454.28;;;18.23;100.00
59789;BME280;47353;51.614;5.530;2022-08-20T03:18:09;101451.28;;;18.19;100.00
59789;BME280;47353;51.614;5.530;2022-08-20T03:20:35;101447.97;;;18.17;100.00
59789;BME280;47353;51.614;5.530;2022-08-20T03:23:00;101452.41;;;18.18;100.00
59789;BME280;47353;51.614;5.530;2022-08-20T03:25:26;101449.63;;;18.18;100.00
59789;BME280;47353;51.614;5.530;2022-08-20T03:27:52;101457.22;;;18.18;100.00
59789;BME280;47353;51.614;5.530;2022-08-20T03:30:18;101455.53;;;18.17;100.00
59789;BME280;47353;51.614;5.530;2022-08-20T03:32:44;101453.03;;;18.15;100.00
59789;BME280;47353;51.614;5.530;2022-08-20T03:35:13;101459.41;;;18.21;100.00
59789;BME280;47353;51.614;5.530;2022-08-20T03:37:39;101467.97;;;18.24;100.00
59789;BME280;47353;51.614;5.530;2022-08-20T03:40:08;101463.22;;;18.25;100.00
59789;BME280;47353;51.614;5.530;2022-08-20T03:42:35;101467.97;;;18.24;100.00
59789;BME280;47353;51.614;5.530;2022-08-20T03:45:00;101467.16;;;18.24;100.00
59789;BME280;47353;51.614;5.530;2022-08-20T03:47:26;101466.34;;;18.23;100.00
59789;BME280;47353;51.614;5.530;2022-08-20T03:49:57;101468.19;;;18.28;100.00
59789;BME280;47353;51.614;5.530;2022-08-20T03:52:23;101473.28;;;18.26;100.00
59789;BME280;47353;51.614;5.530;2022-08-20T03:54:48;101467.34;;;18.27;100.00
59789;BME280;47353;51.614;5.530;2022-08-20T03:57:15;101466.53;;;18.27;100.00
59789;BME280;47353;51.614;5.530;2022-08-20T03:59:42;101465.81;;;18.21;100.00
59789;BME280;47353;51.614;5.530;2022-08-20T04:02:09;101462.91;;;18.13;100.00
59789;BME280;47353;51.614;5.530;2022-08-20T04:04:36;101465.41;;;18.14;100.00
59789;BME280;47353;51.614;5.530;2022-08-20T04:07:14;101472.97;;;18.14;100.00
59789;BME280;47353;51.614;5.530;2022-08-20T04:09:39;101475.38;;;18.07;100.00
59789;BME280;47353;51.614;5.530;2022-08-20T04:12:06;101482.72;;;18.03;100.00
59789;BME280;47353;51.614;5.530;2022-08-20T04:14:32;101481.38;;;18.00;100.00
59789;BME280;47353;51.614;5.530;2022-08-20T04:17:06;101486.47;;;17.98;100.00
59789;BME280;47353;51.614;5.530;2022-08-20T04:19:32;101489.38;;;17.93;100.00
59789;BME280;47353;51.614;5.530;2022-08-20T04:21:58;101489.06;;;17.95;100.00
59789;BME280;47353;51.614;5.530;2022-08-20T04:24:24;101499.75;;;17.93;100.00
59789;BME280;47353;51.614;5.530;2022-08-20T04:26:51;101492.81;;;17.90;100.00
59789;BME280;47353;51.614;5.530;2022-08-20T04:29:16;101490.31;;;17.89;100.00
59789;BME280;47353;51.614;5.530;2022-08-20T04:31:42;101493.94;;;17.89;100.00
59789;BME280;47353;51.614;5.530;2022-08-20T04:34:07;101492.91;;;17.85;100.00
59789;BME280;47353;51.614;5.530;2022-08-20T04:36:33;101493.22;;;17.84;100.00
59789;BME280;47353;51.614;5.530;2022-08-20T04:38:59;101498.38;;;17.77;100.00
59789;BME280;47353;51.614;5.530;2022-08-20T04:41:25;101499.44;;;17.81;100.00
59789;BME280;47353;51.614;5.530;2022-08-20T04:43:52;101500.06;;;17.78;100.00
59789;BME280;47353;51.614;5.530;2022-08-20T04:46:18;101505.13;;;17.76;100.00
59789;BME280;47353;51.614;5.530;2022-08-20T04:48:44;101507.38;;;17.74;100.00
59789;BME280;47353;51.614;5.530;2022-08-20T04:51:09;101502.94;;;17.73;100.00
59789;BME280;47353;51.614;5.530;2022-08-20T04:53:39;101511.03;;;17.74;100.00
59789;BME280;47353;51.614;5.530;2022-08-20T04:56:05;101516.94;;;17.73;100.00
59789;BME280;47353;51.614;5.530;2022-08-20T04:58:36;101517.03;;;17.68;100.00
59789;BME280;47353;51.614;5.530;2022-08-20T05:01:08;101515.69;;;17.65;100.00
59789;BME280;47353;51.614;5.530;2022-08-20T05:03:36;101524.00;;;17.70;100.00
59789;BME280;47353;51.614;5.530;2022-08-20T05:06:04;101521.59;;;17.64;100.00
59789;BME280;47353;51.614;5.530;2022-08-20T05:08:30;101533.09;;;17.62;100.00
59789;BME280;47353;51.614;5.530;2022-08-20T05:10:57;101526.66;;;17.62;100.00
59789;BME280;47353;51.614;5.530;2022-08-20T05:13:23;101528.50;;;17.53;100.00
59789;BME280;47353;51.614;5.530;2022-08-20T05:15:49;101538.97;;;17.47;100.00
59789;BME280;47353;51.614;5.530;2022-08-20T05:18:17;101543.19;;;17.45;100.00
59789;BME280;47353;51.614;5.530;2022-08-20T05:20:44;101547.41;;;17.42;100.00
59789;BME280;47353;51.614;5.530;2022-08-20T05:23:11;101543.53;;;17.38;100.00
59789;BME280;47353;51.614;5.530;2022-08-20T05:25:38;101540.09;;;17.46;100.00
59789;BME280;47353;51.614;5.530;2022-08-20T05:28:06;101539.81;;;17.43;100.00
59789;BME280;47353;51.614;5.530;2022-08-20T05:30:36;101531.84;;;17.36;100.00
59789;BME280;47353;51.614;5.530;2022-08-20T05:33:04;101536.53;;;17.41;100.00
59789;BME280;47353;51.614;5.530;2022-08-20T05:35:30;101544.34;;;17.44;100.00
59789;BME280;47353;51.614;5.530;2022-08-20T05:37:59;101542.13;;;17.41;100.00
59789;BME280;47353;51.614;5.530;2022-08-20T05:40:25;101544.91;;;17.41;100.00
59789;BME280;47353;51.614;5.530;2022-08-20T05:42:51;101548.22;;;17.43;100.00
59789;BME280;47353;51.614;5.530;2022-08-20T05:45:17;101556.63;;;17.43;100.00
59789;BME280;47353;51.614;5.530;2022-08-20T05:47:43;101550.66;;;17.49;100.00
59789;BME280;47353;51.614;5.530;2022-08-20T05:50:10;101544.84;;;17.46;100.00
59789;BME280;47353;51.614;5.530;2022-08-20T05:52:36;101556.13;;;17.41;100.00
59789;BME280;47353;51.614;5.530;2022-08-20T05:55:03;101563.97;;;17.39;100.00
59789;BME280;47353;51.614;5.530;2022-08-20T05:57:29;101557.94;;;17.32;100.00
59789;BME280;47353;51.614;5.530;2022-08-20T05:59:54;101560.13;;;17.35;100.00
59789;BME280;47353;51.614;5.530;2022-08-20T06:02:19;101562.31;;;17.38;100.00
59789;BME280;47353;51.614;5.530;2022-08-20T06:05:04;101560.88;;;17.40;100.00
59789;BME280;47353;51.614;5.530;2022-08-20T06:07:29;101563.13;;;17.38;100.00
59789;BME280;47353;51.614;5.530;2022-08-20T06:09:55;101572.06;;;17.40;100.00
59789;BME280;47353;51.614;5.530;2022-08-20T06:12:20;101561.13;;;17.44;100.00
59789;BME280;47353;51.614;5.530;2022-08-20T06:14:45;101558.84;;;17.46;100.00
59789;BME280;47353;51.614;5.530;2022-08-20T06:17:17;101570.41;;;17.58;100.00
59789;BME280;47353;51.614;5.530;2022-08-20T06:19:43;101565.94;;;17.57;100.00
59789;BME280;47353;51.614;5.530;2022-08-20T06:22:09;101568.72;;;17.57;100.00
59789;BME280;47353;51.614;5.530;2022-08-20T06:24:35;101566.25;;;17.55;100.00
59789;BME280;47353;51.614;5.530;2022-08-20T06:27:02;101564.28;;;17.56;100.00
59789;BME280;47353;51.614;5.530;2022-08-20T06:29:28;101567.00;;;17.61;100.00
59789;BME280;47353;51.614;5.530;2022-08-20T06:31:54;101565.47;;;17.68;100.00
59789;BME280;47353;51.614;5.530;2022-08-20T06:34:20;101554.78;;;17.70;100.00
59789;BME280;47353;51.614;5.530;2022-08-20T06:36:46;101569.00;;;17.74;100.00
59789;BME280;47353;51.614;5.530;2022-08-20T06:39:12;101558.31;;;17.76;100.00
59789;BME280;47353;51.614;5.530;2022-08-20T06:41:38;101571.19;;;17.77;100.00
59789;BME280;47353;51.614;5.530;2022-08-20T06:44:05;101573.97;;;17.77;100.00
59789;BME280;47353;51.614;5.530;2022-08-20T06:46:35;101577.31;;;17.79;100.00
59789;BME280;47353;51.614;5.530;2022-08-20T06:49:01;101572.44;;;17.84;100.00
59789;BME280;47353;51.614;5.530;2022-08-20T06:51:28;101572.34;;;17.89;100.00
59789;BME280;47353;51.614;5.530;2022-08-20T06:53:53;101575.09;;;18.08;100.00
59789;BME280;47353;51.614;5.530;2022-08-20T06:56:19;101575.53;;;18.15;100.00
59789;BME280;47353;51.614;5.530;2022-08-20T06:58:44;101569.09;;;18.14;100.00
59789;BME280;47353;51.614;5.530;2022-08-20T07:01:10;101573.13;;;18.22;100.00
59789;BME280;47353;51.614;5.530;2022-08-20T07:03:40;101582.56;;;18.26;100.00
59789;BME280;47353;51.614;5.530;2022-08-20T07:06:06;101576.97;;;18.26;100.00
59789;BME280;47353;51.614;5.530;2022-08-20T07:08:33;101578.56;;;18.32;100.00
59789;BME280;47353;51.614;5.530;2022-08-20T07:10:59;101586.06;;;18.50;100.00
59789;BME280;47353;51.614;5.530;2022-08-20T07:13:25;101589.78;;;18.59;100.00
59789;BME280;47353;51.614;5.530;2022-08-20T07:15:50;101594.56;;;18.59;100.00
59789;BME280;47353;51.614;5.530;2022-08-20T07:18:16;101586.06;;;18.50;100.00
59789;BME280;47353;51.614;5.530;2022-08-20T07:20:42;101587.22;;;18.49;100.00
59789;BME280;47353;51.614;5.530;2022-08-20T07:23:08;101597.97;;;18.69;100.00
59789;BME280;47353;51.614;5.530;2022-08-20T07:25:37;101596.41;;;18.90;100.00
59789;BME280;47353;51.614;5.530;2022-08-20T07:28:14;101599.75;;;18.92;100.00
59789;BME280;47353;51.614;5.530;2022-08-20T07:30:41;101596.22;;;19.36;100.00
59789;BME280;47353;51.614;5.530;2022-08-20T07:33:27;101598.41;;;19.83;99.63
59789;BME280;47353;51.614;5.530;2022-08-20T07:35:53;101603.34;;;20.08;97.59
59789;BME280;47353;51.614;5.530;2022-08-20T07:38:21;101610.13;;;20.29;96.10
59789;BME280;47353;51.614;5.530;2022-08-20T07:40:52;101612.47;;;20.36;94.04
59789;BME280;47353;51.614;5.530;2022-08-20T07:43:18;101613.94;;;20.11;91.26
59789;BME280;47353;51.614;5.530;2022-08-20T07:45:45;101616.06;;;19.83;91.38
59789;BME280;47353;51.614;5.530;2022-08-20T07:48:12;101622.34;;;19.80;93.85
59789;BME280;47353;51.614;5.530;2022-08-20T07:50:38;101622.84;;;19.82;92.95
59789;BME280;47353;51.614;5.530;2022-08-20T07:53:04;101619.84;;;20.23;93.28
59789;BME280;47353;51.614;5.530;2022-08-20T07:55:30;101628.72;;;20.47;89.08
59789;BME280;47353;51.614;5.530;2022-08-20T07:57:57;101629.31;;;20.75;86.52
59789;BME280;47353;51.614;5.530;2022-08-20T08:00:24;101637.00;;;20.91;84.43
59789;BME280;47353;51.614;5.530;2022-08-20T08:02:50;101634.28;;;21.25;84.63
59789;BME280;47353;51.614;5.530;2022-08-20T08:05:16;101629.81;;;21.33;84.90
59789;BME280;47353;51.614;5.530;2022-08-20T08:07:42;101631.47;;;21.25;80.76
59789;BME280;47353;51.614;5.530;2022-08-20T08:10:11;101636.06;;;20.96;80.77
59789;BME280;47353;51.614;5.530;2022-08-20T08:12:42;101633.97;;;21.44;82.13
59789;BME280;47353;51.614;5.530;2022-08-20T08:15:11;101640.72;;;22.28;79.24
59789;BME280;47353;51.614;5.530;2022-08-20T08:17:38;101635.38;;;22.81;75.57
59789;BME280;47353;51.614;5.530;2022-08-20T08:20:05;101634.34;;;23.65;76.69
59789;BME280;47353;51.614;5.530;2022-08-20T08:22:31;101643.94;;;24.25;72.96
59789;BME280;47353;51.614;5.530;2022-08-20T08:24:58;101640.81;;;24.63;69.77
59789;BME280;47353;51.614;5.530;2022-08-20T08:27:27;101649.13;;;24.80;67.95
59789;BME280;47353;51.614;5.530;2022-08-20T08:29:57;101639.78;;;25.52;67.44
59789;BME280;47353;51.614;5.530;2022-08-20T08:32:23;101650.81;;;24.93;61.44
59789;BME280;47353;51.614;5.530;2022-08-20T08:34:48;101648.41;;;24.83;65.54
59789;BME280;47353;51.614;5.530;2022-08-20T08:37:14;101648.56;;;25.23;61.85
59789;BME280;47353;51.614;5.530;2022-08-20T08:39:39;101652.81;;;26.08;60.59
59789;BME280;47353;51.614;5.530;2022-08-20T08:42:25;101657.63;;;26.20;62.78
59789;BME280;47353;51.614;5.530;2022-08-20T08:44:53;101657.28;;;26.95;59.28
59789;BME280;47353;51.614;5.530;2022-08-20T08:47:29;101664.81;;;27.53;56.05
59789;BME280;47353;51.614;5.530;2022-08-20T08:49:55;101669.47;;;27.61;52.66
59789;BME280;47353;51.614;5.530;2022-08-20T08:52:28;101671.78;;;27.91;56.01
59789;BME280;47353;51.614;5.530;2022-08-20T08:54:58;101669.38;;;28.72;52.94
59789;BME280;47353;51.614;5.530;2022-08-20T08:57:24;101673.38;;;29.39;50.66
59789;BME280;47353;51.614;5.530;2022-08-20T09:00:11;101675.91;;;29.44;48.48
59789;BME280;47353;51.614;5.530;2022-08-20T09:02:38;101667.91;;;29.27;48.53
59789;BME280;47353;51.614;5.530;2022-08-20T09:05:15;101672.31;;;29.51;50.22
59789;BME280;47353;51.614;5.530;2022-08-20T09:07:43;101674.41;;;29.54;45.27
59789;BME280;47353;51.614;5.530;2022-08-20T09:10:09;101663.00;;;29.05;47.11
59789;BME280;47353;51.614;5.530;2022-08-20T09:12:35;101672.28;;;28.15;48.80
59789;BME280;47353;51.614;5.530;2022-08-20T09:15:01;101666.44;;;28.69;48.48
59789;BME280;47353;51.614;5.530;2022-08-20T09:17:26;101675.94;;;30.03;46.94
59789;BME280;47353;51.614;5.530;2022-08-20T09:19:52;101672.09;;;30.95;44.74
59789;BME280;47353;51.614;5.530;2022-08-20T09:22:20;101681.41;;;31.93;42.62
59789;BME280;47353;51.614;5.530;2022-08-20T09:24:45;101676.59;;;31.43;40.08
59789;BME280;47353;51.614;5.530;2022-08-20T09:27:11;101680.09;;;31.80;40.23
59789;BME280;47353;51.614;5.530;2022-08-20T09:29:37;101682.06;;;32.48;40.52
59789;BME280;47353;51.614;5.530;2022-08-20T09:32:08;101678.91;;;32.99;39.91
59789;BME280;47353;51.614;5.530;2022-08-20T09:34:40;101669.69;;;34.06;37.84
59789;BME280;47353;51.614;5.530;2022-08-20T09:37:05;101675.53;;;33.92;32.44
59789;BME280;47353;51.614;5.530;2022-08-20T09:39:31;101663.72;;;33.02;35.81
59789;BME280;47353;51.614;5.530;2022-08-20T09:42:11;101663.28;;;33.45;38.88
59789;BME280;47353;51.614;5.530;2022-08-20T09:44:38;101665.91;;;34.30;34.93
59789;BME280;47353;51.614;5.530;2022-08-20T09:47:04;101653.53;;;34.43;36.84
59789;BME280;47353;51.614;5.530;2022-08-20T09:49:29;101660.00;;;33.36;32.71
59789;BME280;47353;51.614;5.530;2022-08-20T09:51:56;101664.41;;;33.94;35.08
59789;BME280;47353;51.614;5.530;2022-08-20T09:54:22;101658.69;;;34.73;33.10
59789;BME280;47353;51.614;5.530;2022-08-20T09:56:48;101666.81;;;34.88;30.04
59789;BME280;47353;51.614;5.530;2022-08-20T09:59:14;101661.56;;;33.79;30.42
59789;BME280;47353;51.614;5.530;2022-08-20T10:01:40;101665.31;;;32.85;31.80
59789;BME280;47353;51.614;5.530;2022-08-20T10:04:05;101652.22;;;32.77;31.70
59789;BME280;47353;51.614;5.530;2022-08-20T10:06:37;101657.91;;;33.75;32.75
59789;BME280;47353;51.614;5.530;2022-08-20T10:09:03;101656.72;;;35.58;31.57
59789;BME280;47353;51.614;5.530;2022-08-20T10:11:28;101650.91;;;35.21;29.13
59789;BME280;47353;51.614;5.530;2022-08-20T10:13:54;101654.34;;;35.46;30.27
59789;BME280;47353;51.614;5.530;2022-08-20T10:16:19;101655.47;;;35.15;29.40
59789;BME280;47353;51.614;5.530;2022-08-20T10:18:44;101657.03;;;33.93;29.65
59789;BME280;47353;51.614;5.530;2022-08-20T10:21:12;101654.06;;;31.35;33.20
59789;BME280;47353;51.614;5.530;2022-08-20T10:23:37;101653.81;;;29.97;37.39
59789;BME280;47353;51.614;5.530;2022-08-20T10:26:02;101650.22;;;29.44;40.92
59789;BME280;47353;51.614;5.530;2022-08-20T10:28:28;101649.00;;;29.45;41.46
59789;BME280;47353;51.614;5.530;2022-08-20T10:30:53;101659.09;;;28.90;38.57
59789;BME280;47353;51.614;5.530;2022-08-20T10:33:19;101658.72;;;28.47;40.43
59789;BME280;47353;51.614;5.530;2022-08-20T10:35:44;101656.94;;;28.01;41.38
59789;BME280;47353;51.614;5.530;2022-08-20T10:38:10;101657.00;;;28.23;41.43
59789;BME280;47353;51.614;5.530;2022-08-20T10:40:35;101659.41;;;30.93;36.14
59789;BME280;47353;51.614;5.530;2022-08-20T10:43:00;101661.66;;;33.30;31.80
59789;BME280;47353;51.614;5.530;2022-08-20T10:45:27;101658.72;;;35.17;28.93
59789;BME280;47353;51.614;5.530;2022-08-20T10:47:52;101664.63;;;36.51;26.15
59789;BME280;47353;51.614;5.530;2022-08-20T10:50:18;101664.97;;;38.34;24.45
59789;BME280;47353;51.614;5.530;2022-08-20T10:52:44;101659.13;;;38.74;23.29
59789;BME280;47353;51.614;5.530;2022-08-20T10:55:09;101652.06;;;36.38;25.26
59789;BME280;47353;51.614;5.530;2022-08-20T10:57:38;101653.28;;;34.03;30.20
59789;BME280;47353;51.614;5.530;2022-08-20T11:00:04;101652.50;;;32.33;31.77
59789;BME280;47353;51.614;5.530;2022-08-20T11:02:32;101658.59;;;32.11;31.71
59789;BME280;47353;51.614;5.530;2022-08-20T11:04:57;101660.75;;;32.42;33.15
59789;BME280;47353;51.614;5.530;2022-08-20T11:07:24;101656.72;;;31.68;33.85
59789;BME280;47353;51.614;5.530;2022-08-20T11:09:51;101650.50;;;32.38;32.53
59789;BME280;47353;51.614;5.530;2022-08-20T11:12:18;101648.94;;;33.56;29.75
59789;BME280;47353;51.614;5.530;2022-08-20T11:14:44;101652.59;;;32.62;32.47
59789;BME280;47353;51.614;5.530;2022-08-20T11:17:11;101651.06;;;34.45;30.16
59789;BME280;47353;51.614;5.530;2022-08-20T11:19:43;101649.75;;;36.23;27.00
59789;BME280;47353;51.614;5.530;2022-08-20T11:22:10;101656.25;;;37.79;25.07
59789;BME280;47353;51.614;5.530;2022-08-20T11:24:36;101653.09;;;39.32;22.41
59789;BME280;47353;51.614;5.530;2022-08-20T11:27:02;101650.41;;;40.27;21.38
59789;BME280;47353;51.614;5.530;2022-08-20T11:29:28;101661.09;;;41.31;21.37
59789;BME280;47353;51.614;5.530;2022-08-20T11:31:53;101659.28;;;41.92;19.98
59789;BME280;47353;51.614;5.530;2022-08-20T11:34:19;101657.56;;;42.47;19.44
59789;BME280;47353;51.614;5.530;2022-08-20T11:36:45;101638.94;;;40.74;17.59
59789;BME280;47353;51.614;5.530;2022-08-20T11:39:11;101649.28;;;37.96;20.11
59789;BME280;47353;51.614;5.530;2022-08-20T11:41:37;101651.75;;;36.29;22.29
59789;BME280;47353;51.614;5.530;2022-08-20T11:44:02;101652.41;;;35.77;21.81
59789;BME280;47353;51.614;5.530;2022-08-20T11:46:28;101655.19;;;35.47;23.91
59789;BME280;47353;51.614;5.530;2022-08-20T11:48:53;101649.78;;;36.49;24.20
59789;BME280;47353;51.614;5.530;2022-08-20T11:51:19;101649.31;;;35.94;21.96
59789;BME280;47353;51.614;5.530;2022-08-20T11:53:44;101643.69;;;34.34;23.74
59789;BME280;47353;51.614;5.530;2022-08-20T11:56:10;101647.31;;;33.20;26.44
59789;BME280;47353;51.614;5.530;2022-08-20T11:58:37;101646.47;;;32.74;28.97
59789;BME280;47353;51.614;5.530;2022-08-20T12:01:03;101636.22;;;33.36;27.99
59789;BME280;47353;51.614;5.530;2022-08-20T12:03:28;101633.47;;;35.72;24.68
59789;BME280;47353;51.614;5.530;2022-08-20T12:05:55;101636.38;;;37.81;22.32
59789;BME280;47353;51.614;5.530;2022-08-20T12:08:22;101633.34;;;39.27;21.15
59789;BME280;47353;51.614;5.530;2022-08-20T12:10:47;101634.53;;;40.82;19.34
59789;BME280;47353;51.614;5.530;2022-08-20T12:13:13;101633.94;;;41.46;18.59
59789;BME280;47353;51.614;5.530;2022-08-20T12:15:38;101633.88;;;42.36;17.50
59789;BME280;47353;51.614;5.530;2022-08-20T12:18:07;101628.00;;;42.97;17.15
59789;BME280;47353;51.614;5.530;2022-08-20T12:20:34;101635.53;;;43.34;16.29
59789;BME280;47353;51.614;5.530;2022-08-20T12:22:59;101629.41;;;44.04;16.76
59789;BME280;47353;51.614;5.530;2022-08-20T12:25:25;101632.03;;;43.75;15.38
59789;BME280;47353;51.614;5.530;2022-08-20T12:27:50;101634.16;;;44.53;15.93
59789;BME280;47353;51.614;5.530;2022-08-20T12:30:19;101631.94;;;44.39;16.25
59789;BME280;47353;51.614;5.530;2022-08-20T12:32:45;101621.13;;;43.31;15.60
59789;BME280;47353;51.614;5.530;2022-08-20T12:35:12;101627.16;;;42.26;14.56
59789;BME280;47353;51.614;5.530;2022-08-20T12:37:37;101627.72;;;41.35;16.76
59789;BME280;47353;51.614;5.530;2022-08-20T12:40:08;101622.63;;;41.61;18.06
59789;BME280;47353;51.614;5.530;2022-08-20T12:42:35;101631.53;;;42.00;17.77
59789;BME280;47353;51.614;5.530;2022-08-20T12:45:01;101627.28;;;42.14;16.44
59789;BME280;47353;51.614;5.530;2022-08-20T12:47:29;101623.59;;;40.98;17.62
59789;BME280;47353;51.614;5.530;2022-08-20T12:49:57;101620.50;;;39.44;17.26